Time;durP1;ratioP1;P1;durP2;ratioP2;P2;SDS_P1;SDS_P2;PMS_P1;PMS_P2;Temp;Humidity;BMP_temperature;BMP_pressure;BME280_temperature;BME280_humidity;BME280_pressure;Samples;Min_cycle;Max_cycle;Signal;HPM_P1;HPM_P2
2021/12/06 00:00:33;;;;;;;25.57;3.57;;;1.20;99.90;;;;;;5010214;28;20212;-48
2021/12/06 00:03:03;;;;;;;36.97;4.97;;;1.30;99.90;;;;;;5010432;28;20220;-48
2021/12/06 00:05:30;;;;;;;12.40;2.07;;;1.20;99.90;;;;;;5010495;28;20216;-48
2021/12/06 00:07:56;;;;;;;23.40;3.30;;;1.20;99.90;;;;;;5009496;28;20181;-48
2021/12/06 00:10:21;;;;;;;24.67;3.50;;;1.00;99.90;;;;;;5010132;28;20294;-48
2021/12/06 00:12:47;;;;;;;24.87;3.50;;;1.10;99.90;;;;;;5010122;28;20256;-48
2021/12/06 00:15:13;;;;;;;30.07;4.17;;;1.10;99.90;;;;;;5010146;28;20220;-48
2021/12/06 00:17:40;;;;;;;26.87;3.77;;;;;;;;;;5010254;28;20220;-48
2021/12/06 00:20:08;;;;;;;8.97;1.73;;;1.40;99.90;;;;;;5009892;28;20696;-48
2021/12/06 00:22:34;;;;;;;27.53;3.87;;;1.10;99.90;;;;;;5010543;28;20193;-48
2021/12/06 00:24:59;;;;;;;31.27;4.27;;;1.30;99.90;;;;;;5009693;28;20245;-49
2021/12/06 00:27:26;;;;;;;19.77;2.93;;;1.20;99.90;;;;;;5010146;28;20266;-48
2021/12/06 00:29:52;;;;;;;23.53;3.40;;;0.90;99.90;;;;;;5012854;28;20744;-48
2021/12/06 00:32:18;;;;;;;23.20;3.30;;;1.60;99.90;;;;;;5013919;28;20372;-48
2021/12/06 00:34:44;;;;;;;30.07;4.20;;;1.20;99.90;;;;;;5014654;28;20204;-48
2021/12/06 00:40:09;;;;;;;29.40;4.10;;;1.00;99.90;;;;;;5000610;28;20221;-48
2021/12/06 00:42:35;;;;;;;23.47;3.30;;;;;;;;;;5013881;28;20216;-48
2021/12/06 00:45:05;;;;;;;28.13;3.73;;;1.00;99.90;;;;;;5013435;28;20308;-48
2021/12/06 00:47:31;;;;;;;39.13;5.07;;;;;;;;;;5013590;28;20644;-48
2021/12/06 00:49:57;;;;;;;25.37;3.60;;;;;;;;;;5013484;28;20209;-48
2021/12/06 00:52:23;;;;;;;16.97;2.57;;;;;;;;;;5013767;28;20585;-48
2021/12/06 00:54:49;;;;;;;12.73;2.10;;;0.50;99.90;;;;;;5013275;28;20217;-49
2021/12/06 00:57:15;;;;;;;32.00;4.33;;;0.80;99.90;;;;;;5013357;28;20213;-48
2021/12/06 00:59:41;;;;;;;35.63;4.67;;;1.10;99.90;;;;;;5013242;28;20216;-48
2021/12/06 01:02:08;;;;;;;26.97;3.77;;;1.10;99.90;;;;;;5013551;28;20188;-48
2021/12/06 01:04:36;;;;;;;30.70;4.20;;;1.00;99.90;;;;;;5013526;28;20280;-48
2021/12/06 01:07:03;;;;;;;23.83;3.37;;;1.00;99.90;;;;;;5013197;28;20227;-48
2021/12/06 01:09:29;;;;;;;32.23;4.30;;;;;;;;;;5012926;28;20220;-48
2021/12/06 01:11:55;;;;;;;27.23;3.70;;;1.20;99.90;;;;;;5013120;28;20236;-48
2021/12/06 01:14:21;;;;;;;29.10;3.93;;;;;;;;;;5013064;28;20217;-48
2021/12/06 01:16:46;;;;;;;28.50;3.83;;;1.10;99.90;;;;;;5013711;28;20231;-48
2021/12/06 01:19:12;;;;;;;26.50;3.67;;;;;;;;;;5012810;28;20711;-48
2021/12/06 01:21:47;;;;;;;30.17;3.97;;;;;;;;;;5012832;28;20220;-48
2021/12/06 01:24:16;;;;;;;32.70;4.43;;;0.90;99.90;;;;;;5012672;28;20240;-48
2021/12/06 01:27:07;;;;;;;15.30;2.33;;;;;;;;;;5013050;28;20398;-48
2021/12/06 01:32:35;;;;;;;25.27;3.50;;;;;;;;;;5012760;28;20211;-48
2021/12/06 01:40:30;;;;;;;27.70;3.80;;;;;;;;;;5012044;28;20212;-48
2021/12/06 01:42:56;;;;;;;35.20;4.60;;;0.80;99.90;;;;;;5012280;28;20632;-48
2021/12/06 01:45:21;;;;;;;24.87;3.47;;;0.90;99.90;;;;;;5012428;28;20317;-48
2021/12/06 01:47:47;;;;;;;13.07;2.13;;;0.80;99.90;;;;;;5012506;28;20244;-48
2021/12/06 01:50:24;;;;;;;25.93;3.77;;;0.90;99.90;;;;;;5012445;28;20273;-48
2021/12/06 01:52:54;;;;;;;28.83;3.90;;;0.80;99.90;;;;;;5012934;28;20180;-48
2021/12/06 01:55:25;;;;;;;20.97;3.07;;;0.80;99.90;;;;;;5012161;28;20213;-48
2021/12/06 01:57:53;;;;;;;32.10;4.37;;;;;;;;;;5012093;28;20212;-47
2021/12/06 02:00:24;;;;;;;29.97;4.07;;;0.80;99.90;;;;;;5012051;28;20220;-48
2021/12/06 02:02:50;;;;;;;38.57;5.03;;;1.20;99.90;;;;;;5011970;28;20216;-48
2021/12/06 02:05:16;;;;;;;31.53;4.20;;;0.80;99.90;;;;;;5012192;28;20208;-48
2021/12/06 02:07:43;;;;;;;28.23;3.90;;;0.90;99.90;;;;;;5012565;28;20181;-48
2021/12/06 02:10:09;;;;;;;25.47;3.53;;;;;;;;;;5011843;28;20694;-48
2021/12/06 02:12:35;;;;;;;26.97;3.70;;;;;;;;;;5012099;28;20224;-48
2021/12/06 02:15:09;;;;;;;22.00;3.13;;;;;;;;;;5011950;28;20294;-48
2021/12/06 02:17:40;;;;;;;22.67;3.23;;;;;;;;;;5011896;28;20300;-48
2021/12/06 02:20:20;;;;;;;12.67;2.10;;;0.70;99.90;;;;;;5011934;28;20511;-48
2021/12/06 02:22:46;;;;;;;34.33;4.57;;;0.90;99.90;;;;;;5012398;28;20172;-47
2021/12/06 02:25:16;;;;;;;10.77;1.90;;;0.80;99.90;;;;;;5011888;28;20243;-48
2021/12/06 02:27:43;;;;;;;26.63;3.70;;;0.80;99.90;;;;;;5011619;28;20255;-48
2021/12/06 02:30:09;;;;;;;18.70;2.70;;;0.80;99.90;;;;;;5011201;28;20271;-48
2021/12/06 02:32:36;;;;;;;23.27;3.33;;;1.00;99.90;;;;;;5011763;28;20236;-48
2021/12/06 02:35:04;;;;;;;6.90;1.43;;;0.80;99.90;;;;;;5011706;28;20197;-48
2021/12/06 02:37:32;;;;;;;43.60;5.63;;;0.80;99.90;;;;;;5010209;28;20604;-48
2021/12/06 02:40:00;;;;;;;38.23;5.00;;;0.80;99.90;;;;;;5010930;28;20247;-48
2021/12/06 02:42:26;;;;;;;16.13;2.50;;;;;;;;;;5011514;28;20225;-48
2021/12/06 02:44:53;;;;;;;25.93;3.57;;;1.00;99.90;;;;;;5011235;28;20235;-47
2021/12/06 02:47:20;;;;;;;26.73;3.60;;;0.90;99.90;;;;;;5011448;28;20213;-48
2021/12/06 02:49:47;;;;;;;26.37;3.67;;;0.80;99.90;;;;;;5011919;28;20570;-48
2021/12/06 02:52:13;;;;;;;30.17;4.00;;;1.10;99.90;;;;;;5010487;28;20585;-48
2021/12/06 02:54:40;;;;;;;37.50;4.97;;;1.00;99.90;;;;;;5010910;28;20340;-48
2021/12/06 02:59:43;;;;;;;31.77;4.23;;;1.10;99.90;;;;;;5011083;28;20223;-48
2021/12/06 03:02:12;;;;;;;28.53;3.97;;;0.90;99.90;;;;;;5011240;28;20206;-48
2021/12/06 03:04:40;;;;;;;27.47;3.80;;;0.80;99.90;;;;;;5011481;28;20688;-48
2021/12/06 03:07:07;;;;;;;32.37;4.30;;;0.90;99.90;;;;;;5010678;28;20220;-48
2021/12/06 03:09:37;;;;;;;33.30;4.40;;;0.90;99.90;;;;;;5010623;28;20241;-48
2021/12/06 03:12:25;;;;;;;27.50;3.83;;;1.00;99.90;;;;;;5010993;28;20644;-48
2021/12/06 03:14:57;;;;;;;25.47;3.53;;;0.90;99.90;;;;;;5010735;28;20279;-48
2021/12/06 03:17:23;;;;;;;6.53;1.30;;;;;;;;;;5011114;28;20213;-48
2021/12/06 03:19:50;;;;;;;24.50;3.37;;;1.00;99.90;;;;;;5011497;28;20645;-48
2021/12/06 03:22:16;;;;;;;35.63;4.73;;;0.90;99.90;;;;;;5010596;28;20652;-48
2021/12/06 03:24:43;;;;;;;37.23;4.97;;;0.70;99.90;;;;;;5010350;28;20213;-48
2021/12/06 03:27:09;;;;;;;5.00;1.13;;;;;;;;;;5010556;28;20241;-48
2021/12/06 03:29:34;;;;;;;25.23;3.53;;;0.80;99.90;;;;;;5010543;28;20841;-48
2021/12/06 03:32:01;;;;;;;30.07;4.20;;;1.00;99.90;;;;;;5010377;28;20193;-48
2021/12/06 03:34:27;;;;;;;34.03;4.50;;;;;;;;;;5011054;28;20189;-48
2021/12/06 03:36:57;;;;;;;39.17;5.07;;;0.90;99.90;;;;;;5010496;28;20209;-48
2021/12/06 03:39:27;;;;;;;23.90;3.27;;;0.70;99.90;;;;;;5010525;28;20245;-48
2021/12/06 03:41:56;;;;;;;21.93;3.10;;;0.90;99.90;;;;;;5010705;28;20212;-48
2021/12/06 03:44:22;;;;;;;31.50;4.23;;;0.80;99.90;;;;;;5010358;28;20220;-48
2021/12/06 03:46:51;;;;;;;29.10;3.90;;;1.00;99.90;;;;;;5011218;28;20256;-48
2021/12/06 03:49:17;;;;;;;15.10;2.27;;;;;;;;;;5010369;28;20403;-48
2021/12/06 03:51:44;;;;;;;25.47;3.57;;;1.00;99.90;;;;;;5010238;28;20531;-48
2021/12/06 03:54:13;;;;;;;22.90;3.17;;;0.90;99.90;;;;;;5010469;28;20811;-48
2021/12/06 03:56:39;;;;;;;31.83;4.27;;;0.90;99.90;;;;;;5010455;28;20227;-48
2021/12/06 03:59:05;;;;;;;25.33;3.70;;;1.00;99.90;;;;;;5010186;28;20263;-48
2021/12/06 04:01:32;;;;;;;26.77;3.70;;;0.60;99.90;;;;;;5011194;28;20331;-48
2021/12/06 04:04:02;;;;;;;25.37;3.53;;;1.10;99.90;;;;;;5015089;28;20229;-48
2021/12/06 04:06:28;;;;;;;8.33;1.53;;;;;;;;;;5016865;28;20220;-48
2021/12/06 04:08:54;;;;;;;40.37;5.23;;;;;;;;;;5016472;28;20225;-48
2021/12/06 04:11:21;;;;;;;34.27;4.53;;;;;;;;;;5016564;28;20752;-48
2021/12/06 04:13:47;;;;;;;25.33;3.50;;;0.70;99.90;;;;;;5017299;28;20173;-48
2021/12/06 04:16:13;;;;;;;24.97;3.47;;;0.80;99.90;;;;;;5016853;28;20646;-48
2021/12/06 04:18:39;;;;;;;32.10;4.37;;;;;;;;;;5016698;28;20238;-48
2021/12/06 04:21:05;;;;;;;35.40;4.63;;;0.80;99.90;;;;;;5016646;28;20295;-48
2021/12/06 04:23:32;;;;;;;30.10;4.00;;;0.60;99.90;;;;;;5016833;28;20243;-48
2021/12/06 04:25:58;;;;;;;27.97;3.77;;;0.70;99.90;;;;;;5016586;28;20193;-48
2021/12/06 04:28:23;;;;;;;26.60;3.73;;;1.00;99.90;;;;;;5017096;28;20175;-48
2021/12/06 04:30:50;;;;;;;27.07;3.63;;;0.90;99.90;;;;;;5016630;28;20227;-48
2021/12/06 04:33:17;;;;;;;28.87;3.93;;;;;;;;;;5016533;28;20216;-48
2021/12/06 04:35:44;;;;;;;21.70;3.17;;;0.80;99.90;;;;;;5016949;28;20224;-48
2021/12/06 04:38:10;;;;;;;29.20;4.07;;;1.10;99.90;;;;;;5016560;28;20239;-48
2021/12/06 04:40:37;;;;;;;29.80;4.07;;;1.00;99.90;;;;;;5016893;28;20172;-48
2021/12/06 04:43:03;;;;;;;24.20;3.37;;;;;;;;;;5016456;28;20247;-48
2021/12/06 04:45:29;;;;;;;31.87;4.30;;;;;;;;;;5016321;28;20231;-48
2021/12/06 04:47:55;;;;;;;29.27;3.97;;;;;;;;;;5016707;28;20216;-48
2021/12/06 04:50:25;;;;;;;5.70;1.27;;;0.90;99.90;;;;;;5016173;28;20212;-48
2021/12/06 04:52:52;;;;;;;29.60;4.03;;;;;;;;;;5016682;28;20204;-47
2021/12/06 04:55:29;;;;;;;25.77;3.57;;;0.70;99.90;;;;;;5016097;28;20247;-48
2021/12/06 04:57:55;;;;;;;25.70;3.57;;;0.90;99.90;;;;;;5016570;28;20697;-48
2021/12/06 05:00:36;;;;;;;19.00;2.77;;;0.90;99.90;;;;;;5016556;28;20452;-48
2021/12/06 05:03:03;;;;;;;38.37;5.03;;;0.90;99.90;;;;;;5016390;28;20216;-49
2021/12/06 05:05:39;;;;;;;32.70;4.33;;;0.90;99.90;;;;;;5016293;28;20220;-48
2021/12/06 05:08:16;;;;;;;32.90;4.57;;;0.90;99.90;;;;;;5016059;28;20599;-48
2021/12/06 05:10:42;;;;;;;30.53;4.13;;;1.00;99.90;;;;;;5016143;28;20250;-48
2021/12/06 05:13:08;;;;;;;31.00;4.23;;;;;;;;;;5016195;28;20216;-48
2021/12/06 05:15:34;;;;;;;7.30;1.33;;;1.00;99.90;;;;;;5013330;28;20236;-48
2021/12/06 05:18:00;;;;;;;24.67;3.53;;;1.10;99.90;;;;;;5013157;28;20610;-48
2021/12/06 05:20:26;;;;;;;36.33;4.77;;;;;;;;;;5012887;28;20216;-48
2021/12/06 05:22:52;;;;;;;31.63;4.27;;;;;;;;;;5013499;28;20263;-48
2021/12/06 05:25:22;;;;;;;25.67;3.53;;;;;;;;;;4995149;28;20279;-48
2021/12/06 05:27:49;;;;;;;32.97;4.37;;;1.20;99.90;;;;;;5012782;28;20227;-48
2021/12/06 05:30:15;;;;;;;28.27;3.83;;;1.20;99.90;;;;;;5012744;28;20240;-48
2021/12/06 05:32:42;;;;;;;36.57;4.87;;;1.20;99.90;;;;;;5013001;28;20278;-48
2021/12/06 05:35:09;;;;;;;26.63;3.77;;;1.10;99.90;;;;;;5012886;28;20197;-48
2021/12/06 05:37:48;;;;;;;29.03;3.83;;;0.90;99.90;;;;;;5013399;28;20170;-48
2021/12/06 05:40:17;;;;;;;36.13;4.80;;;1.00;99.90;;;;;;5012463;28;20307;-48
2021/12/06 05:42:43;;;;;;;25.20;3.50;;;;;;;;;;5012668;28;20299;-48
2021/12/06 05:45:10;;;;;;;32.07;4.27;;;0.80;99.90;;;;;;5012447;28;20696;-48
2021/12/06 05:47:37;;;;;;;25.93;3.53;;;0.90;99.90;;;;;;5012795;28;20311;-48
2021/12/06 05:50:04;;;;;;;24.03;3.50;;;0.90;99.90;;;;;;5012378;28;20192;-48
2021/12/06 05:52:29;;;;;;;27.77;3.73;;;;;;;;;;5013068;28;20200;-48
2021/12/06 05:54:55;;;;;;;25.73;3.57;;;0.80;99.90;;;;;;5012573;28;20296;-48
2021/12/06 05:57:21;;;;;;;12.23;2.07;;;;;;;;;;5012528;28;20677;-48
2021/12/06 05:59:47;;;;;;;20.63;2.93;;;0.90;99.90;;;;;;5012533;28;20256;-48
2021/12/06 06:02:14;;;;;;;38.40;5.07;;;;;;;;;;5012224;28;20236;-48
2021/12/06 06:04:40;;;;;;;33.13;4.43;;;1.00;99.90;;;;;;5012685;28;20192;-49
2021/12/06 06:07:06;;;;;;;27.13;3.73;;;1.00;99.90;;;;;;5012270;28;20221;-48
2021/12/06 06:09:32;;;;;;;32.70;4.37;;;0.70;99.90;;;;;;5011859;28;20240;-48
2021/12/06 06:11:57;;;;;;;28.17;3.83;;;0.70;99.90;;;;;;5011991;28;20239;-48
2021/12/06 06:14:23;;;;;;;35.03;4.67;;;1.10;99.90;;;;;;5011974;28;20224;-48
2021/12/06 06:16:53;;;;;;;34.63;4.63;;;0.90;99.90;;;;;;5012413;28;20177;-48
2021/12/06 06:19:22;;;;;;;29.00;3.87;;;1.10;99.90;;;;;;5011982;28;20224;-48
2021/12/06 06:21:49;;;;;;;37.27;4.93;;;;;;;;;;5011729;28;20217;-48
2021/12/06 06:24:14;;;;;;;25.13;3.47;;;1.10;99.90;;;;;;5011609;28;20597;-48
2021/12/06 06:26:40;;;;;;;29.43;4.03;;;0.80;99.90;;;;;;5010553;28;20232;-48
2021/12/06 06:29:07;;;;;;;28.07;3.97;;;0.70;99.90;;;;;;5011836;28;20181;-48
2021/12/06 06:31:32;;;;;;;21.90;3.13;;;0.80;99.90;;;;;;5012280;28;20205;-48
2021/12/06 06:33:58;;;;;;;40.97;5.23;;;1.20;99.90;;;;;;5011598;28;20299;-49
2021/12/06 06:36:24;;;;;;;23.80;3.43;;;0.80;99.90;;;;;;5011155;28;20638;-47
2021/12/06 06:38:50;;;;;;;30.03;4.03;;;;;;;;;;5010165;28;20227;-47
2021/12/06 06:41:16;;;;;;;40.37;5.23;;;;;;;;;;5012152;28;20592;-47
2021/12/06 06:43:42;;;;;;;26.67;3.63;;;;;;;;;;5011939;28;20174;-47
2021/12/06 06:46:09;;;;;;;31.20;4.13;;;0.90;99.90;;;;;;5011321;28;20228;-47
2021/12/06 06:48:35;;;;;;;39.53;5.13;;;;;;;;;;5011452;28;20209;-47
2021/12/06 06:51:00;;;;;;;27.93;3.83;;;1.10;99.90;;;;;;5011326;28;20220;-47
2021/12/06 06:53:29;;;;;;;21.70;3.10;;;1.00;99.90;;;;;;5011321;28;20227;-47
2021/12/06 06:55:56;;;;;;;33.73;4.57;;;0.90;99.90;;;;;;5011642;28;20201;-47
2021/12/06 06:58:22;;;;;;;24.23;3.43;;;1.10;99.90;;;;;;5010871;28;20209;-48
2021/12/06 07:00:49;;;;;;;28.30;3.90;;;0.90;99.90;;;;;;5011088;28;20251;-47
2021/12/06 07:03:15;;;;;;;13.23;2.17;;;1.00;99.90;;;;;;5011081;28;20232;-47
2021/12/06 07:05:41;;;;;;;18.63;2.73;;;0.90;99.90;;;;;;5011208;28;20597;-47
2021/12/06 07:08:07;;;;;;;26.73;3.70;;;0.90;99.90;;;;;;5011037;28;20531;-47
2021/12/06 07:10:33;;;;;;;23.20;3.27;;;1.00;99.90;;;;;;5011416;28;20200;-48
2021/12/06 07:13:03;;;;;;;34.30;4.57;;;1.00;99.90;;;;;;5011008;28;20235;-47
2021/12/06 07:15:31;;;;;;;16.03;2.43;;;0.90;99.90;;;;;;5010987;28;20593;-47
2021/12/06 07:17:57;;;;;;;13.53;2.10;;;1.10;99.90;;;;;;5010149;28;20223;-47
2021/12/06 07:20:23;;;;;;;15.60;2.37;;;0.90;99.90;;;;;;5010782;28;20592;-47
2021/12/06 07:22:52;;;;;;;29.70;4.03;;;;;;;;;;5011515;28;20177;-47
2021/12/06 07:25:20;;;;;;;32.30;4.30;;;1.30;99.90;;;;;;5010181;28;20229;-47
2021/12/06 07:27:47;;;;;;;33.13;4.40;;;1.10;99.90;;;;;;5010643;28;20266;-47
2021/12/06 07:30:15;;;;;;;18.87;2.83;;;1.10;99.90;;;;;;5010490;28;20212;-47
2021/12/06 07:32:41;;;;;;;36.87;4.87;;;1.20;99.90;;;;;;5010750;28;20355;-47
2021/12/06 07:35:08;;;;;;;31.20;4.43;;;1.10;99.90;;;;;;5010469;28;20203;-47
2021/12/06 07:37:35;;;;;;;33.30;4.47;;;1.10;99.90;;;;;;5010701;28;20187;-47
2021/12/06 07:40:01;;;;;;;42.03;5.47;;;;;;;;;;5010203;28;20227;-47
2021/12/06 07:42:27;;;;;;;29.30;4.00;;;;;;;;;;5010618;28;20228;-47
2021/12/06 07:44:53;;;;;;;34.53;4.60;;;;;;;;;;5010114;28;20601;-47
2021/12/06 07:47:19;;;;;;;38.27;5.00;;;;;;;;;;5010558;28;20224;-47
2021/12/06 07:49:46;;;;;;;42.10;5.43;;;;;;;;;;5010853;28;20177;-47
2021/12/06 07:52:12;;;;;;;35.93;4.73;;;1.20;99.90;;;;;;5010125;28;20233;-47
2021/12/06 07:54:39;;;;;;;38.13;4.93;;;1.30;99.90;;;;;;5008871;28;20225;-47
2021/12/06 07:57:06;;;;;;;52.30;6.50;;;;;;;;;;5009862;28;20311;-47
2021/12/06 07:59:33;;;;;;;37.20;4.90;;;;;;;;;;5009042;28;20686;-47
2021/12/06 08:01:59;;;;;;;39.07;5.17;;;1.30;99.90;;;;;;5008674;28;20610;-47
2021/12/06 08:04:25;;;;;;;27.37;3.77;;;1.30;99.90;;;;;;5010686;28;20501;-47
2021/12/06 08:06:51;;;;;;;24.53;3.43;;;;;;;;;;5010320;28;20679;-47
2021/12/06 08:09:17;;;;;;;28.50;3.90;;;;;;;;;;5009728;28;20593;-47
2021/12/06 08:11:43;;;;;;;40.00;5.23;;;1.30;99.90;;;;;;5010203;28;20712;-47
2021/12/06 08:14:09;;;;;;;25.03;3.60;;;;;;;;;;5010110;28;20207;-47
2021/12/06 08:16:39;;;;;;;38.30;5.00;;;1.40;99.90;;;;;;5010402;28;20239;-47
2021/12/06 08:19:06;;;;;;;28.67;3.87;;;1.70;99.90;;;;;;5009503;28;20216;-46
2021/12/06 08:21:32;;;;;;;37.90;4.87;;;;;;;;;;5009768;28;20213;-47
2021/12/06 08:23:59;;;;;;;36.77;4.83;;;1.30;99.90;;;;;;5009828;28;20749;-46
2021/12/06 08:26:30;;;;;;;30.67;4.17;;;1.30;99.90;;;;;;5009993;28;20213;-47
2021/12/06 08:28:57;;;;;;;27.37;3.73;;;1.40;99.90;;;;;;5010005;28;20173;-47
2021/12/06 08:31:23;;;;;;;24.73;3.47;;;1.40;99.90;;;;;;5009965;28;20696;-47
2021/12/06 08:33:49;;;;;;;30.13;4.07;;;1.40;99.90;;;;;;5009961;28;20227;-47
2021/12/06 08:36:16;;;;;;;33.37;4.43;;;1.70;99.90;;;;;;5010124;28;20225;-47
2021/12/06 08:38:42;;;;;;;33.50;4.37;;;1.60;99.90;;;;;;5009824;28;20221;-47
2021/12/06 08:41:11;;;;;;;34.70;4.80;;;1.40;99.90;;;;;;5009961;28;20200;-47
2021/12/06 08:43:38;;;;;;;46.17;5.93;;;1.30;99.90;;;;;;5010369;28;20677;-47
2021/12/06 08:46:11;;;;;;;22.67;3.27;;;1.50;99.90;;;;;;5010146;28;20295;-48
2021/12/06 08:48:39;;;;;;;27.67;3.80;;;1.90;99.90;;;;;;5010027;28;20219;-48
2021/12/06 08:51:08;;;;;;;34.10;4.60;;;1.90;99.90;;;;;;5011856;28;20898;-47
2021/12/06 08:53:36;;;;;;;21.53;3.17;;;2.00;99.90;;;;;;5013468;28;20224;-48
2021/12/06 08:56:03;;;;;;;34.17;4.63;;;2.20;99.90;;;;;;5013124;28;20193;-49
2021/12/06 08:58:29;;;;;;;30.80;4.10;;;1.90;99.90;;;;;;5013573;28;20255;-48
2021/12/06 09:00:55;;;;;;;39.00;5.17;;;;;;;;;;5013452;28;20248;-47
2021/12/06 09:03:21;;;;;;;33.07;4.40;;;;;;;;;;5013504;28;20636;-46
2021/12/06 09:05:50;;;;;;;43.77;5.63;;;1.80;99.90;;;;;;5013104;28;20308;-47
2021/12/06 09:08:16;;;;;;;31.23;4.20;;;1.80;99.90;;;;;;5013099;28;20539;-47
2021/12/06 09:10:43;;;;;;;35.20;4.70;;;2.00;99.90;;;;;;5013367;28;20231;-47
2021/12/06 09:13:10;;;;;;;32.10;4.30;;;;;;;;;;4995475;28;20708;-47
2021/12/06 09:15:35;;;;;;;29.23;3.93;;;1.90;99.90;;;;;;5013060;28;20235;-48
2021/12/06 09:18:01;;;;;;;36.10;4.77;;;;;;;;;;5013067;28;20221;-47
2021/12/06 09:20:35;;;;;;;30.30;4.03;;;1.80;99.90;;;;;;5013098;28;20217;-47
2021/12/06 09:23:00;;;;;;;28.50;4.13;;;2.00;99.90;;;;;;5013340;28;20656;-47
2021/12/06 09:25:28;;;;;;;30.53;4.13;;;1.60;99.90;;;;;;5013154;28;20204;-47
2021/12/06 09:27:54;;;;;;;27.33;3.80;;;;;;;;;;5012800;28;20626;-47
2021/12/06 09:30:24;;;;;;;38.33;4.97;;;1.90;99.90;;;;;;5012885;28;20588;-47
2021/12/06 09:32:50;;;;;;;24.27;3.43;;;2.00;99.90;;;;;;5013554;28;20232;-47
2021/12/06 09:35:21;;;;;;;24.90;3.53;;;2.00;99.90;;;;;;5012626;28;20232;-47
2021/12/06 09:37:47;;;;;;;35.67;4.80;;;1.90;99.90;;;;;;5012978;28;20637;-47
2021/12/06 09:40:15;;;;;;;39.03;5.13;;;2.10;99.90;;;;;;5012655;28;20217;-47
2021/12/06 09:42:43;;;;;;;27.13;3.80;;;2.30;99.90;;;;;;5012863;28;20213;-47
2021/12/06 09:45:11;;;;;;;29.00;3.93;;;2.10;99.90;;;;;;5012559;28;20271;-47
2021/12/06 09:47:37;;;;;;;27.67;3.77;;;1.90;99.90;;;;;;5012657;28;20311;-48
2021/12/06 09:50:05;;;;;;;36.37;4.77;;;2.10;99.90;;;;;;5012258;28;20267;-47
2021/12/06 09:52:30;;;;;;;30.40;4.13;;;2.40;99.90;;;;;;4995110;28;20209;-47
2021/12/06 09:54:56;;;;;;;30.20;4.07;;;;;;;;;;5012151;28;20720;-47
2021/12/06 09:57:23;;;;;;;25.80;3.60;;;2.20;99.90;;;;;;5012502;28;20228;-48
2021/12/06 09:59:48;;;;;;;37.00;4.83;;;2.20;99.90;;;;;;5012330;28;20220;-47
2021/12/06 10:02:17;;;;;;;26.53;3.80;;;2.30;99.90;;;;;;5012282;28;20231;-47
2021/12/06 10:04:48;;;;;;;23.83;3.27;;;2.20;99.90;;;;;;5012850;28;20530;-47
2021/12/06 10:07:14;;;;;;;29.43;4.10;;;2.20;99.90;;;;;;5012351;28;20611;-48
2021/12/06 10:09:42;;;;;;;27.07;3.80;;;2.20;99.90;;;;;;5011750;28;20299;-47
2021/12/06 10:12:10;;;;;;;32.87;4.53;;;2.30;99.90;;;;;;5011811;28;20608;-47
2021/12/06 10:14:36;;;;;;;28.00;3.97;;;2.20;99.90;;;;;;4994858;28;20275;-47
2021/12/06 10:17:04;;;;;;;22.17;3.30;;;2.30;99.90;;;;;;5012521;28;20208;-46
2021/12/06 10:19:30;;;;;;;16.30;2.53;;;;;;;;;;4994833;28;20173;-47
2021/12/06 10:21:56;;;;;;;22.67;3.30;;;2.20;99.90;;;;;;5011581;28;20266;-47
2021/12/06 10:24:26;;;;;;;26.47;3.73;;;2.10;99.90;;;;;;5011787;28;20217;-47
2021/12/06 10:27:06;;;;;;;25.17;3.50;;;2.50;99.90;;;;;;5012044;28;20249;-47
2021/12/06 10:29:59;;;;;;;32.97;4.57;;;2.10;99.90;;;;;;5011510;28;20232;-47
2021/12/06 10:32:30;;;;;;;20.07;2.97;;;2.60;99.90;;;;;;5011924;28;20239;-47
2021/12/06 10:35:04;;;;;;;26.97;3.83;;;2.50;99.90;;;;;;5011645;28;20557;-47
2021/12/06 10:37:54;;;;;;;24.03;3.40;;;2.40;99.90;;;;;;5012246;28;20577;-47
2021/12/06 10:40:41;;;;;;;25.80;3.70;;;2.20;99.90;;;;;;4999728;28;20262;-47
2021/12/06 10:43:11;;;;;;;32.63;4.47;;;2.20;99.90;;;;;;5011131;28;20228;-47
2021/12/06 10:45:42;;;;;;;22.57;3.27;;;2.60;99.90;;;;;;5011625;28;20225;-47
2021/12/06 10:48:16;;;;;;;24.50;3.50;;;2.50;99.90;;;;;;5011631;28;20255;-47
2021/12/06 10:51:03;;;;;;;25.80;3.70;;;2.30;99.90;;;;;;5011450;28;20221;-48
2021/12/06 10:53:39;;;;;;;31.83;4.40;;;2.40;99.90;;;;;;5011206;28;20209;-47
2021/12/06 10:56:14;;;;;;;29.77;4.17;;;2.40;99.90;;;;;;5010929;28;20193;-47
2021/12/06 10:58:40;;;;;;;41.53;5.53;;;;;;;;;;5011672;28;20154;-47
2021/12/06 11:01:10;;;;;;;41.30;5.60;;;2.60;99.90;;;;;;5010960;28;20689;-48
2021/12/06 11:03:45;;;;;;;21.83;3.17;;;2.70;99.90;;;;;;5011126;28;20689;-47
2021/12/06 11:06:19;;;;;;;29.57;4.17;;;2.40;99.90;;;;;;5011001;28;20255;-47
2021/12/06 11:08:49;;;;;;;51.87;6.80;;;2.70;99.90;;;;;;5010823;28;20628;-48
2021/12/06 11:11:26;;;;;;;26.20;3.93;;;2.20;99.90;;;;;;5010683;28;20219;-48
2021/12/06 11:13:55;;;;;;;18.90;2.83;;;2.60;99.90;;;;;;5011155;28;20167;-47
2021/12/06 11:16:27;;;;;;;41.33;5.50;;;2.30;99.90;;;;;;5011045;28;20752;-48
2021/12/06 11:18:58;;;;;;;31.33;4.33;;;2.60;99.90;;;;;;5010721;28;20756;-48
2021/12/06 11:21:38;;;;;;;24.97;3.53;;;2.80;99.90;;;;;;5010860;28;20213;-47
2021/12/06 11:24:29;;;;;;;27.63;4.07;;;2.60;99.90;;;;;;5010671;28;20221;-47
2021/12/06 11:27:04;;;;;;;99.63;13.60;;;2.60;99.90;;;;;;4976193;28;20299;-51
2021/12/06 11:30:04;;;;;;;99.53;14.00;;;2.60;99.90;;;;;;4984403;28;20217;-57
2021/12/06 11:32:33;;;;;;;116.87;16.00;;;2.50;99.90;;;;;;4983546;28;20307;-54
2021/12/06 11:34:59;;;;;;;118.93;16.17;;;;;;;;;;4980458;28;20205;-54
2021/12/06 11:37:59;;;;;;;80.17;11.10;;;2.60;99.90;;;;;;4985085;28;20225;-54
2021/12/06 11:40:29;;;;;;;91.57;12.20;;;2.50;99.90;;;;;;4991177;28;20232;-53
2021/12/06 11:42:56;;;;;;;131.37;17.67;;;;;;;;;;4987179;28;20705;-54
2021/12/06 11:45:52;;;;;;;102.20;14.10;;;2.60;99.90;;;;;;4983789;28;20931;-55
2021/12/06 11:48:18;;;;;;;139.20;18.50;;;;;;;;;;4981907;28;21008;-53
2021/12/06 11:50:50;;;;;;;117.83;15.93;;;2.70;99.90;;;;;;4985154;28;20212;-54
2021/12/06 11:53:19;;;;;;;192.27;27.43;;;2.60;99.90;;;;;;4976890;28;20326;-53
2021/12/06 11:55:52;;;;;;;137.00;18.63;;;2.70;99.90;;;;;;4978636;28;20244;-53
2021/12/06 11:58:36;;;;;;;87.37;12.23;;;2.70;99.90;;;;;;4980187;28;20223;-53
2021/12/06 12:01:06;;;;;;;100.80;13.67;;;2.60;99.90;;;;;;4974801;28;20224;-54
2021/12/06 12:03:34;;;;;;;68.43;9.50;;;2.60;99.90;;;;;;4979455;28;20219;-55
2021/12/06 12:05:59;;;;;;;98.37;13.33;;;2.70;99.90;;;;;;4986470;28;20730;-54
2021/12/06 12:08:30;;;;;;;97.37;13.70;;;2.70;99.90;;;;;;4973493;28;20230;-56
2021/12/06 12:10:55;;;;;;;53.27;7.80;;;4.30;99.90;;;;;;4994671;28;20666;-54
2021/12/06 12:13:35;;;;;;;83.03;12.07;;;2.60;99.90;;;;;;4986061;28;20185;-56
2021/12/06 12:16:04;;;;;;;31.30;4.93;;;2.70;99.90;;;;;;4986410;28;20644;-54
2021/12/06 12:18:31;;;;;;;51.93;7.60;;;2.50;99.90;;;;;;4989459;28;20347;-54
2021/12/06 12:20:57;;;;;;;122.37;16.43;;;2.60;99.90;;;;;;4980098;28;20228;-53
2021/12/06 12:23:24;;;;;;;66.87;9.10;;;2.70;99.90;;;;;;4981853;28;20567;-56
2021/12/06 12:28:32;;;;;;;87.27;11.53;;;2.60;99.90;;;;;;4987032;28;20233;-54
2021/12/06 12:30:59;;;;;;;94.23;12.97;;;2.60;99.90;;;;;;4991515;28;20225;-54
2021/12/06 12:33:25;;;;;;;86.43;11.93;;;2.60;99.90;;;;;;4995588;28;20217;-54
2021/12/06 12:36:01;;;;;;;51.47;7.67;;;2.70;99.90;;;;;;4994008;28;20872;-54
2021/12/06 12:38:30;;;;;;;57.60;8.23;;;2.60;99.90;;;;;;4992913;28;20237;-53
2021/12/06 12:41:03;;;;;;;45.00;6.60;;;2.60;99.90;;;;;;4997031;28;20194;-55
2021/12/06 12:43:38;;;;;;;92.33;12.97;;;2.70;99.90;;;;;;4990506;28;20169;-54
2021/12/06 12:46:09;;;;;;;48.67;7.20;;;2.70;99.90;;;;;;5002630;28;20748;-54
2021/12/06 12:48:47;;;;;;;60.77;8.43;;;2.60;99.90;;;;;;4999401;28;20213;-53
2021/12/06 12:51:27;;;;;;;89.23;12.43;;;2.70;99.90;;;;;;4995542;28;20231;-53
2021/12/06 12:54:03;;;;;;;86.53;12.17;;;2.60;99.90;;;;;;4993705;28;20226;-53
2021/12/06 12:56:41;;;;;;;53.87;7.60;;;2.60;99.90;;;;;;4991931;28;20246;-53
2021/12/06 12:59:16;;;;;;;75.13;11.00;;;2.70;99.90;;;;;;4991386;28;20268;-53
2021/12/06 13:01:45;;;;;;;113.03;15.83;;;;;;;;;;4968212;28;20565;-54
2021/12/06 13:04:11;;;;;;;94.93;13.13;;;;;;;;;;4978973;28;20724;-54
2021/12/06 13:06:39;;;;;;;56.60;8.10;;;2.40;99.90;;;;;;4987409;28;20223;-54
2021/12/06 13:09:08;;;;;;;85.43;12.43;;;2.60;99.90;;;;;;4986995;28;20766;-56
2021/12/06 13:11:45;;;;;;;91.63;12.90;;;2.60;99.90;;;;;;4989817;28;20826;-55
2021/12/06 13:14:36;;;;;;;124.07;17.73;;;2.60;99.90;;;;;;4981907;28;20220;-55
2021/12/06 13:17:06;;;;;;;96.77;13.50;;;2.60;99.90;;;;;;4982215;28;20213;-55
2021/12/06 13:22:13;;;;;;;64.33;8.77;;;2.60;99.90;;;;;;4993516;28;20648;-53
2021/12/06 13:24:49;;;;;;;75.40;10.13;;;2.60;99.90;;;;;;4992325;28;20228;-49
2021/12/06 13:27:18;;;;;;;47.67;6.73;;;2.80;99.90;;;;;;4990322;28;20212;-50
2021/12/06 13:29:50;;;;;;;121.17;16.50;;;2.60;99.90;;;;;;4986893;28;20217;-50
2021/12/06 13:32:29;;;;;;;42.20;5.87;;;2.50;99.90;;;;;;4983500;28;20771;-50